Terminal Aerodrome Forecast
Issued by NWS

Home | Current Version | Previous Version | Text Only | Print | Product List | Glossary On
Versions: 1 2 3 4 5 6 7 8 9 10 11 12 13 14 15 16 17 18 19 20
000
FTUS41 KBOX 230850 AAC
TAFHYA
TAF AMD
KHYA 230850Z 2309/2406 00000KT 3/4SM BR VV001
      TEMPO 2309/2312 1/4SM FG
     FM231400 17005KT 1SM BR BKN003
     FM231700 17007KT P6SM BKN050
     FM240300 16010G21KT P6SM OVC150=

USA.gov is the U.S. government's official web portal to all federal, state and local government web resources and services.